PNN weather

Princeton Municipal Airport
Princeton, Maine, United States

Public forecast

Using degrees Fahrenheit for public forecast. Weather courtesy of forecast.io.

METAR (pilot weather report)

Closest report is Millinocket Municipal Airport, 54.3 nm (100.6 km) WNW. Retrieved 2019/08/24 22:53 UTC (55 minutes ago):

KMLT 242253Z AUTO 03003KT 10SM CLR 19/11 A3028 RMK AO2 SLP259 T01940106

TAF (pilot weather forecast)

Closest forecast is Houlton International Airport, 56.2 nm (104.1 km) N. Retrieved 2019/08/24 18:30 UTC (5 hours ago):

TAF KHUL 241729Z 2418/2518 02008KT P6SM SCT035 FM250100 VRB03KT P6SM SKC